sensor_id;sensor_type;location;lat;lon;timestamp;temperature;humidity
4324;DHT22;2175;51.018;6.994;2023-04-07T00:00:23;8.20;99.90
4324;DHT22;2175;51.018;6.994;2023-04-07T00:02:50;8.10;99.90
4324;DHT22;2175;51.018;6.994;2023-04-07T00:05:16;8.00;99.90
4324;DHT22;2175;51.018;6.994;2023-04-07T00:07:41;8.10;99.90
4324;DHT22;2175;51.018;6.994;2023-04-07T00:10:07;8.10;99.90
4324;DHT22;2175;51.018;6.994;2023-04-07T00:12:33;8.10;99.90
4324;DHT22;2175;51.018;6.994;2023-04-07T00:14:59;8.20;99.90
4324;DHT22;2175;51.018;6.994;2023-04-07T00:17:24;8.20;99.90
4324;DHT22;2175;51.018;6.994;2023-04-07T00:19:50;8.20;99.90
4324;DHT22;2175;51.018;6.994;2023-04-07T00:22:15;8.10;99.90
4324;DHT22;2175;51.018;6.994;2023-04-07T00:24:42;8.10;99.90
4324;DHT22;2175;51.018;6.994;2023-04-07T00:27:07;8.20;99.90
4324;DHT22;2175;51.018;6.994;2023-04-07T00:29:33;8.20;99.90
4324;DHT22;2175;51.018;6.994;2023-04-07T00:31:59;8.10;99.90
4324;DHT22;2175;51.018;6.994;2023-04-07T00:34:24;8.10;99.90
4324;DHT22;2175;51.018;6.994;2023-04-07T00:36:50;8.20;99.90
4324;DHT22;2175;51.018;6.994;2023-04-07T00:39:19;8.20;99.90
4324;DHT22;2175;51.018;6.994;2023-04-07T00:41:45;8.20;99.90
4324;DHT22;2175;51.018;6.994;2023-04-07T00:44:11;8.20;99.90
4324;DHT22;2175;51.018;6.994;2023-04-07T00:46:37;8.20;99.90
4324;DHT22;2175;51.018;6.994;2023-04-07T00:49:03;8.20;99.90
4324;DHT22;2175;51.018;6.994;2023-04-07T00:51:30;8.30;99.90
4324;DHT22;2175;51.018;6.994;2023-04-07T00:53:55;8.20;99.90
4324;DHT22;2175;51.018;6.994;2023-04-07T00:56:21;8.20;99.90
4324;DHT22;2175;51.018;6.994;2023-04-07T00:58:47;8.20;99.90
4324;DHT22;2175;51.018;6.994;2023-04-07T01:01:18;8.20;99.90
4324;DHT22;2175;51.018;6.994;2023-04-07T01:04:04;8.30;99.90
4324;DHT22;2175;51.018;6.994;2023-04-07T01:06:34;8.30;99.90
4324;DHT22;2175;51.018;6.994;2023-04-07T01:09:01;8.30;99.90
4324;DHT22;2175;51.018;6.994;2023-04-07T01:11:48;8.30;99.90
4324;DHT22;2175;51.018;6.994;2023-04-07T01:14:17;8.20;99.90
4324;DHT22;2175;51.018;6.994;2023-04-07T01:16:49;8.30;99.90
4324;DHT22;2175;51.018;6.994;2023-04-07T01:19:48;8.40;99.90
4324;DHT22;2175;51.018;6.994;2023-04-07T01:22:22;8.40;99.90
4324;DHT22;2175;51.018;6.994;2023-04-07T01:30:12;8.30;99.90
4324;DHT22;2175;51.018;6.994;2023-04-07T01:32:42;8.30;99.90
4324;DHT22;2175;51.018;6.994;2023-04-07T01:35:13;8.30;99.90
4324;DHT22;2175;51.018;6.994;2023-04-07T01:37:39;8.30;99.90
4324;DHT22;2175;51.018;6.994;2023-04-07T01:40:06;8.40;99.90
4324;DHT22;2175;51.018;6.994;2023-04-07T01:42:33;8.40;99.90
4324;DHT22;2175;51.018;6.994;2023-04-07T01:45:01;8.40;99.90
4324;DHT22;2175;51.018;6.994;2023-04-07T01:47:28;8.40;99.90
4324;DHT22;2175;51.018;6.994;2023-04-07T01:50:14;8.50;99.90
4324;DHT22;2175;51.018;6.994;2023-04-07T02:16:45;8.60;99.90
4324;DHT22;2175;51.018;6.994;2023-04-07T02:19:11;8.50;99.90
4324;DHT22;2175;51.018;6.994;2023-04-07T02:21:38;8.50;99.90
4324;DHT22;2175;51.018;6.994;2023-04-07T02:24:05;8.60;99.90
4324;DHT22;2175;51.018;6.994;2023-04-07T02:26:35;8.60;99.90
4324;DHT22;2175;51.018;6.994;2023-04-07T02:29:04;8.50;99.90
4324;DHT22;2175;51.018;6.994;2023-04-07T02:31:30;8.60;99.90
4324;DHT22;2175;51.018;6.994;2023-04-07T02:33:55;8.70;99.90
4324;DHT22;2175;51.018;6.994;2023-04-07T02:36:21;8.80;99.90
4324;DHT22;2175;51.018;6.994;2023-04-07T02:38:46;8.90;99.90
4324;DHT22;2175;51.018;6.994;2023-04-07T02:41:12;8.90;99.90
4324;DHT22;2175;51.018;6.994;2023-04-07T02:43:38;8.90;99.90
4324;DHT22;2175;51.018;6.994;2023-04-07T02:46:03;8.90;99.90
4324;DHT22;2175;51.018;6.994;2023-04-07T02:48:29;8.90;99.90
4324;DHT22;2175;51.018;6.994;2023-04-07T02:50:55;8.90;99.90
4324;DHT22;2175;51.018;6.994;2023-04-07T02:53:21;8.90;99.90
4324;DHT22;2175;51.018;6.994;2023-04-07T02:55:46;8.90;99.90
4324;DHT22;2175;51.018;6.994;2023-04-07T02:58:12;8.80;99.90
4324;DHT22;2175;51.018;6.994;2023-04-07T03:00:37;8.90;99.90
4324;DHT22;2175;51.018;6.994;2023-04-07T03:03:03;8.80;99.90
4324;DHT22;2175;51.018;6.994;2023-04-07T03:05:28;8.80;99.90
4324;DHT22;2175;51.018;6.994;2023-04-07T03:07:54;8.80;99.90
4324;DHT22;2175;51.018;6.994;2023-04-07T03:10:19;8.80;99.90
4324;DHT22;2175;51.018;6.994;2023-04-07T03:12:45;8.90;99.90
4324;DHT22;2175;51.018;6.994;2023-04-07T03:15:11;8.90;99.90
4324;DHT22;2175;51.018;6.994;2023-04-07T03:17:36;8.90;99.90
4324;DHT22;2175;51.018;6.994;2023-04-07T03:20:02;8.90;99.90
4324;DHT22;2175;51.018;6.994;2023-04-07T03:22:28;9.00;99.90
4324;DHT22;2175;51.018;6.994;2023-04-07T03:24:53;8.90;99.90
4324;DHT22;2175;51.018;6.994;2023-04-07T03:27:19;8.80;99.90
4324;DHT22;2175;51.018;6.994;2023-04-07T03:29:45;8.90;99.90
4324;DHT22;2175;51.018;6.994;2023-04-07T03:32:11;8.90;99.90
4324;DHT22;2175;51.018;6.994;2023-04-07T03:34:37;9.00;99.90
4324;DHT22;2175;51.018;6.994;2023-04-07T03:37:02;9.00;99.90
4324;DHT22;2175;51.018;6.994;2023-04-07T03:39:28;9.00;99.90
4324;DHT22;2175;51.018;6.994;2023-04-07T03:41:54;9.10;99.90
4324;DHT22;2175;51.018;6.994;2023-04-07T03:44:20;9.10;99.90
4324;DHT22;2175;51.018;6.994;2023-04-07T03:46:46;9.10;99.90
4324;DHT22;2175;51.018;6.994;2023-04-07T03:49:13;9.10;99.90
4324;DHT22;2175;51.018;6.994;2023-04-07T03:51:38;9.10;99.90
4324;DHT22;2175;51.018;6.994;2023-04-07T03:54:04;9.00;99.90
4324;DHT22;2175;51.018;6.994;2023-04-07T03:56:30;9.00;99.90
4324;DHT22;2175;51.018;6.994;2023-04-07T03:58:55;9.10;99.90
4324;DHT22;2175;51.018;6.994;2023-04-07T04:01:21;9.10;99.90
4324;DHT22;2175;51.018;6.994;2023-04-07T04:03:48;9.00;99.90
4324;DHT22;2175;51.018;6.994;2023-04-07T04:06:13;9.00;99.90
4324;DHT22;2175;51.018;6.994;2023-04-07T04:08:39;9.00;99.90
4324;DHT22;2175;51.018;6.994;2023-04-07T04:11:05;9.10;99.90
4324;DHT22;2175;51.018;6.994;2023-04-07T04:13:31;9.10;99.90
4324;DHT22;2175;51.018;6.994;2023-04-07T04:15:56;9.00;99.90
4324;DHT22;2175;51.018;6.994;2023-04-07T04:18:22;9.00;99.90
4324;DHT22;2175;51.018;6.994;2023-04-07T04:20:48;9.00;99.90
4324;DHT22;2175;51.018;6.994;2023-04-07T04:23:14;9.10;99.90
4324;DHT22;2175;51.018;6.994;2023-04-07T04:25:40;9.10;99.90
4324;DHT22;2175;51.018;6.994;2023-04-07T04:28:06;9.10;99.90
4324;DHT22;2175;51.018;6.994;2023-04-07T04:30:31;9.00;99.90
4324;DHT22;2175;51.018;6.994;2023-04-07T04:32:57;9.00;99.90
4324;DHT22;2175;51.018;6.994;2023-04-07T04:35:23;9.10;99.90
4324;DHT22;2175;51.018;6.994;2023-04-07T04:37:49;9.10;99.90
4324;DHT22;2175;51.018;6.994;2023-04-07T04:40:14;9.10;99.90
4324;DHT22;2175;51.018;6.994;2023-04-07T04:42:40;9.10;99.90
4324;DHT22;2175;51.018;6.994;2023-04-07T04:45:07;9.10;99.90
4324;DHT22;2175;51.018;6.994;2023-04-07T04:47:32;9.10;99.90
4324;DHT22;2175;51.018;6.994;2023-04-07T04:49:58;9.10;99.90
4324;DHT22;2175;51.018;6.994;2023-04-07T04:52:23;9.00;99.90
4324;DHT22;2175;51.018;6.994;2023-04-07T04:54:49;9.00;99.90
4324;DHT22;2175;51.018;6.994;2023-04-07T04:57:14;9.00;99.90
4324;DHT22;2175;51.018;6.994;2023-04-07T04:59:40;9.00;99.90
4324;DHT22;2175;51.018;6.994;2023-04-07T05:02:06;8.90;99.90
4324;DHT22;2175;51.018;6.994;2023-04-07T05:04:32;8.90;99.90
4324;DHT22;2175;51.018;6.994;2023-04-07T05:06:58;8.90;99.90
4324;DHT22;2175;51.018;6.994;2023-04-07T05:09:23;8.90;99.90
4324;DHT22;2175;51.018;6.994;2023-04-07T05:11:49;8.90;99.90
4324;DHT22;2175;51.018;6.994;2023-04-07T05:14:14;8.90;99.90
4324;DHT22;2175;51.018;6.994;2023-04-07T05:16:40;8.90;99.90
4324;DHT22;2175;51.018;6.994;2023-04-07T05:19:06;8.90;99.90
4324;DHT22;2175;51.018;6.994;2023-04-07T05:21:31;8.80;99.90
4324;DHT22;2175;51.018;6.994;2023-04-07T05:23:57;8.80;99.90
4324;DHT22;2175;51.018;6.994;2023-04-07T05:26:22;8.80;99.90
4324;DHT22;2175;51.018;6.994;2023-04-07T05:28:48;8.80;99.90
4324;DHT22;2175;51.018;6.994;2023-04-07T05:31:13;8.90;99.90
4324;DHT22;2175;51.018;6.994;2023-04-07T05:33:39;8.90;99.90
4324;DHT22;2175;51.018;6.994;2023-04-07T05:36:05;8.80;99.90
4324;DHT22;2175;51.018;6.994;2023-04-07T05:38:31;8.90;99.90
4324;DHT22;2175;51.018;6.994;2023-04-07T05:40:56;8.90;99.90
4324;DHT22;2175;51.018;6.994;2023-04-07T05:43:22;8.90;99.90
4324;DHT22;2175;51.018;6.994;2023-04-07T05:45:47;8.70;99.90
4324;DHT22;2175;51.018;6.994;2023-04-07T05:48:13;8.70;99.90
4324;DHT22;2175;51.018;6.994;2023-04-07T05:50:39;8.70;99.90
4324;DHT22;2175;51.018;6.994;2023-04-07T05:53:05;8.70;99.90
4324;DHT22;2175;51.018;6.994;2023-04-07T05:55:31;8.70;99.90
4324;DHT22;2175;51.018;6.994;2023-04-07T05:57:56;8.70;99.90
4324;DHT22;2175;51.018;6.994;2023-04-07T06:00:22;8.70;99.90
4324;DHT22;2175;51.018;6.994;2023-04-07T06:02:48;8.70;99.90
4324;DHT22;2175;51.018;6.994;2023-04-07T06:05:13;8.70;99.90
4324;DHT22;2175;51.018;6.994;2023-04-07T06:07:39;8.70;99.90
4324;DHT22;2175;51.018;6.994;2023-04-07T06:10:05;8.70;99.90
4324;DHT22;2175;51.018;6.994;2023-04-07T06:12:31;8.60;99.90
4324;DHT22;2175;51.018;6.994;2023-04-07T06:14:57;8.60;99.90
4324;DHT22;2175;51.018;6.994;2023-04-07T06:17:22;8.60;99.90
4324;DHT22;2175;51.018;6.994;2023-04-07T06:19:48;8.70;99.90
4324;DHT22;2175;51.018;6.994;2023-04-07T06:22:21;8.70;99.90
4324;DHT22;2175;51.018;6.994;2023-04-07T06:24:46;8.70;99.90
4324;DHT22;2175;51.018;6.994;2023-04-07T06:27:12;8.70;99.90
4324;DHT22;2175;51.018;6.994;2023-04-07T06:29:47;8.70;99.90
4324;DHT22;2175;51.018;6.994;2023-04-07T06:32:12;8.70;99.90
4324;DHT22;2175;51.018;6.994;2023-04-07T06:34:38;8.60;99.90
4324;DHT22;2175;51.018;6.994;2023-04-07T06:37:13;8.70;99.90
4324;DHT22;2175;51.018;6.994;2023-04-07T06:39:41;8.80;99.90
4324;DHT22;2175;51.018;6.994;2023-04-07T06:42:06;8.70;99.90
4324;DHT22;2175;51.018;6.994;2023-04-07T06:44:35;8.80;99.90
4324;DHT22;2175;51.018;6.994;2023-04-07T06:47:01;8.80;99.90
4324;DHT22;2175;51.018;6.994;2023-04-07T06:49:26;8.80;99.90
4324;DHT22;2175;51.018;6.994;2023-04-07T06:51:52;8.80;99.90
4324;DHT22;2175;51.018;6.994;2023-04-07T06:54:25;8.80;99.90
4324;DHT22;2175;51.018;6.994;2023-04-07T06:56:55;8.70;99.90
4324;DHT22;2175;51.018;6.994;2023-04-07T06:59:21;8.70;99.90
4324;DHT22;2175;51.018;6.994;2023-04-07T07:01:50;8.80;99.90
4324;DHT22;2175;51.018;6.994;2023-04-07T07:04:16;8.80;99.90
4324;DHT22;2175;51.018;6.994;2023-04-07T07:06:41;8.80;99.90
4324;DHT22;2175;51.018;6.994;2023-04-07T07:09:07;8.70;99.90
4324;DHT22;2175;51.018;6.994;2023-04-07T07:11:32;8.70;99.90
4324;DHT22;2175;51.018;6.994;2023-04-07T07:13:59;8.70;99.90
4324;DHT22;2175;51.018;6.994;2023-04-07T07:16:40;8.60;99.90
4324;DHT22;2175;51.018;6.994;2023-04-07T07:19:06;8.70;99.90
4324;DHT22;2175;51.018;6.994;2023-04-07T07:21:31;8.70;99.90
4324;DHT22;2175;51.018;6.994;2023-04-07T07:23:57;8.70;99.90
4324;DHT22;2175;51.018;6.994;2023-04-07T07:26:24;8.80;99.90
4324;DHT22;2175;51.018;6.994;2023-04-07T07:28:50;8.70;99.90
4324;DHT22;2175;51.018;6.994;2023-04-07T07:31:16;8.80;99.90
4324;DHT22;2175;51.018;6.994;2023-04-07T07:33:42;8.80;99.90
4324;DHT22;2175;51.018;6.994;2023-04-07T07:36:10;8.70;99.90
4324;DHT22;2175;51.018;6.994;2023-04-07T07:38:36;8.60;99.90
4324;DHT22;2175;51.018;6.994;2023-04-07T07:41:02;8.60;99.90
4324;DHT22;2175;51.018;6.994;2023-04-07T07:43:28;8.60;99.90
4324;DHT22;2175;51.018;6.994;2023-04-07T07:45:53;8.60;99.90
4324;DHT22;2175;51.018;6.994;2023-04-07T07:48:19;8.60;99.90
4324;DHT22;2175;51.018;6.994;2023-04-07T07:50:45;8.50;99.90
4324;DHT22;2175;51.018;6.994;2023-04-07T07:53:11;8.60;99.90
4324;DHT22;2175;51.018;6.994;2023-04-07T07:55:37;8.70;99.90
4324;DHT22;2175;51.018;6.994;2023-04-07T07:58:02;8.80;99.90
4324;DHT22;2175;51.018;6.994;2023-04-07T08:00:28;8.90;99.90
4324;DHT22;2175;51.018;6.994;2023-04-07T08:02:54;8.90;99.90
4324;DHT22;2175;51.018;6.994;2023-04-07T08:05:19;8.80;99.90
4324;DHT22;2175;51.018;6.994;2023-04-07T08:07:45;8.80;99.90
4324;DHT22;2175;51.018;6.994;2023-04-07T08:10:12;8.90;99.90
4324;DHT22;2175;51.018;6.994;2023-04-07T08:12:37;9.00;99.90
4324;DHT22;2175;51.018;6.994;2023-04-07T08:15:04;9.00;99.90
4324;DHT22;2175;51.018;6.994;2023-04-07T08:17:30;9.10;99.90
4324;DHT22;2175;51.018;6.994;2023-04-07T08:19:55;9.10;99.90
4324;DHT22;2175;51.018;6.994;2023-04-07T08:22:21;9.20;99.90
4324;DHT22;2175;51.018;6.994;2023-04-07T08:24:46;9.20;99.90
4324;DHT22;2175;51.018;6.994;2023-04-07T08:27:12;9.20;99.90
4324;DHT22;2175;51.018;6.994;2023-04-07T08:29:38;9.20;99.90
4324;DHT22;2175;51.018;6.994;2023-04-07T08:32:03;9.00;99.90
4324;DHT22;2175;51.018;6.994;2023-04-07T08:34:29;9.10;99.90
4324;DHT22;2175;51.018;6.994;2023-04-07T08:36:55;9.20;99.90
4324;DHT22;2175;51.018;6.994;2023-04-07T08:39:21;9.20;99.90
4324;DHT22;2175;51.018;6.994;2023-04-07T08:41:49;9.10;99.90
4324;DHT22;2175;51.018;6.994;2023-04-07T08:44:16;9.10;99.90
4324;DHT22;2175;51.018;6.994;2023-04-07T08:46:42;9.00;99.90
4324;DHT22;2175;51.018;6.994;2023-04-07T08:49:10;9.00;99.90
4324;DHT22;2175;51.018;6.994;2023-04-07T08:51:46;9.10;99.90
4324;DHT22;2175;51.018;6.994;2023-04-07T08:54:14;9.10;99.90
4324;DHT22;2175;51.018;6.994;2023-04-07T08:56:41;9.20;99.90
4324;DHT22;2175;51.018;6.994;2023-04-07T08:59:09;9.20;99.90
4324;DHT22;2175;51.018;6.994;2023-04-07T09:01:35;9.20;99.90
4324;DHT22;2175;51.018;6.994;2023-04-07T09:04:03;9.20;99.90
4324;DHT22;2175;51.018;6.994;2023-04-07T09:06:30;9.30;99.90
4324;DHT22;2175;51.018;6.994;2023-04-07T09:08:57;9.40;99.90
4324;DHT22;2175;51.018;6.994;2023-04-07T09:11:26;9.30;99.90
4324;DHT22;2175;51.018;6.994;2023-04-07T09:13:53;9.50;99.90
4324;DHT22;2175;51.018;6.994;2023-04-07T09:16:19;9.60;99.90
4324;DHT22;2175;51.018;6.994;2023-04-07T09:18:45;9.50;99.90
4324;DHT22;2175;51.018;6.994;2023-04-07T09:21:11;9.60;99.90
4324;DHT22;2175;51.018;6.994;2023-04-07T09:23:39;9.70;99.90
4324;DHT22;2175;51.018;6.994;2023-04-07T09:28:45;10.00;99.90
4324;DHT22;2175;51.018;6.994;2023-04-07T09:31:12;9.90;99.90
4324;DHT22;2175;51.018;6.994;2023-04-07T09:33:38;9.90;99.90
4324;DHT22;2175;51.018;6.994;2023-04-07T09:36:05;9.90;99.90
4324;DHT22;2175;51.018;6.994;2023-04-07T09:38:36;9.70;99.90
4324;DHT22;2175;51.018;6.994;2023-04-07T09:41:10;9.60;99.90
4324;DHT22;2175;51.018;6.994;2023-04-07T09:43:38;9.50;99.90
4324;DHT22;2175;51.018;6.994;2023-04-07T09:46:07;9.70;99.90
4324;DHT22;2175;51.018;6.994;2023-04-07T09:48:33;9.80;99.90
4324;DHT22;2175;51.018;6.994;2023-04-07T09:51:07;9.70;99.90
4324;DHT22;2175;51.018;6.994;2023-04-07T09:53:41;9.80;99.90
4324;DHT22;2175;51.018;6.994;2023-04-07T09:56:09;9.90;99.90
4324;DHT22;2175;51.018;6.994;2023-04-07T09:58:37;10.10;99.90
4324;DHT22;2175;51.018;6.994;2023-04-07T10:01:05;10.10;99.90
4324;DHT22;2175;51.018;6.994;2023-04-07T10:03:33;10.10;99.90
4324;DHT22;2175;51.018;6.994;2023-04-07T10:06:00;9.90;99.90
4324;DHT22;2175;51.018;6.994;2023-04-07T10:08:27;9.60;99.90
4324;DHT22;2175;51.018;6.994;2023-04-07T10:10:54;9.70;99.90
4324;DHT22;2175;51.018;6.994;2023-04-07T10:13:21;9.70;99.90
4324;DHT22;2175;51.018;6.994;2023-04-07T10:15:49;9.60;99.90
4324;DHT22;2175;51.018;6.994;2023-04-07T10:18:16;9.50;99.90
4324;DHT22;2175;51.018;6.994;2023-04-07T10:20:43;9.40;99.90
4324;DHT22;2175;51.018;6.994;2023-04-07T10:23:21;9.50;99.90
4324;DHT22;2175;51.018;6.994;2023-04-07T10:25:49;9.50;99.90
4324;DHT22;2175;51.018;6.994;2023-04-07T10:28:20;9.50;99.90
4324;DHT22;2175;51.018;6.994;2023-04-07T10:30:47;9.50;99.90
4324;DHT22;2175;51.018;6.994;2023-04-07T10:33:13;9.50;99.90
4324;DHT22;2175;51.018;6.994;2023-04-07T10:36:02;9.50;99.90
4324;DHT22;2175;51.018;6.994;2023-04-07T10:38:28;9.50;99.90
4324;DHT22;2175;51.018;6.994;2023-04-07T10:40:53;9.50;99.90
4324;DHT22;2175;51.018;6.994;2023-04-07T10:43:39;9.50;99.90
4324;DHT22;2175;51.018;6.994;2023-04-07T10:46:09;9.50;99.90
4324;DHT22;2175;51.018;6.994;2023-04-07T10:48:34;9.50;99.90
4324;DHT22;2175;51.018;6.994;2023-04-07T10:53:29;9.60;99.90
4324;DHT22;2175;51.018;6.994;2023-04-07T10:56:04;9.60;99.90
4324;DHT22;2175;51.018;6.994;2023-04-07T10:58:31;9.70;99.90
4324;DHT22;2175;51.018;6.994;2023-04-07T11:03:30;9.80;99.90
4324;DHT22;2175;51.018;6.994;2023-04-07T11:06:22;9.80;99.90
4324;DHT22;2175;51.018;6.994;2023-04-07T11:08:48;10.00;99.90
4324;DHT22;2175;51.018;6.994;2023-04-07T11:11:33;10.20;99.90
4324;DHT22;2175;51.018;6.994;2023-04-07T11:13:59;10.40;99.90
4324;DHT22;2175;51.018;6.994;2023-04-07T11:16:35;10.60;99.90
4324;DHT22;2175;51.018;6.994;2023-04-07T11:19:00;10.70;99.90
4324;DHT22;2175;51.018;6.994;2023-04-07T11:21:26;10.50;99.90
4324;DHT22;2175;51.018;6.994;2023-04-07T11:23:52;10.60;99.90
4324;DHT22;2175;51.018;6.994;2023-04-07T11:26:17;10.70;99.90
4324;DHT22;2175;51.018;6.994;2023-04-07T11:28:51;10.80;99.90
4324;DHT22;2175;51.018;6.994;2023-04-07T11:31:24;10.50;99.90
4324;DHT22;2175;51.018;6.994;2023-04-07T11:33:55;10.30;99.90
4324;DHT22;2175;51.018;6.994;2023-04-07T11:36:28;10.20;99.90
4324;DHT22;2175;51.018;6.994;2023-04-07T11:38:54;10.20;99.90
4324;DHT22;2175;51.018;6.994;2023-04-07T11:41:21;10.30;99.90
4324;DHT22;2175;51.018;6.994;2023-04-07T11:43:46;10.40;99.90
4324;DHT22;2175;51.018;6.994;2023-04-07T11:46:17;10.40;99.90
4324;DHT22;2175;51.018;6.994;2023-04-07T11:48:44;10.50;99.90
4324;DHT22;2175;51.018;6.994;2023-04-07T11:51:18;10.60;99.90
4324;DHT22;2175;51.018;6.994;2023-04-07T11:53:44;10.70;99.90
4324;DHT22;2175;51.018;6.994;2023-04-07T11:56:13;10.60;99.90
4324;DHT22;2175;51.018;6.994;2023-04-07T11:58:49;10.50;99.90
4324;DHT22;2175;51.018;6.994;2023-04-07T12:01:15;10.20;99.90
4324;DHT22;2175;51.018;6.994;2023-04-07T12:04:02;10.30;99.90
4324;DHT22;2175;51.018;6.994;2023-04-07T12:06:29;10.20;99.90
4324;DHT22;2175;51.018;6.994;2023-04-07T12:08:59;10.30;99.90
4324;DHT22;2175;51.018;6.994;2023-04-07T12:11:25;10.50;99.90
4324;DHT22;2175;51.018;6.994;2023-04-07T12:13:52;10.70;99.90
4324;DHT22;2175;51.018;6.994;2023-04-07T12:16:18;10.90;99.90
4324;DHT22;2175;51.018;6.994;2023-04-07T12:18:44;11.00;99.90
4324;DHT22;2175;51.018;6.994;2023-04-07T12:21:10;11.20;99.90
4324;DHT22;2175;51.018;6.994;2023-04-07T12:23:35;11.00;99.90
4324;DHT22;2175;51.018;6.994;2023-04-07T12:26:01;10.90;99.90
4324;DHT22;2175;51.018;6.994;2023-04-07T12:31:11;11.10;99.90
4324;DHT22;2175;51.018;6.994;2023-04-07T12:33:37;11.20;99.90
4324;DHT22;2175;51.018;6.994;2023-04-07T12:36:02;11.20;99.90
4324;DHT22;2175;51.018;6.994;2023-04-07T12:38:30;11.20;99.90
4324;DHT22;2175;51.018;6.994;2023-04-07T12:40:56;11.10;99.90
4324;DHT22;2175;51.018;6.994;2023-04-07T12:43:29;11.20;99.90
4324;DHT22;2175;51.018;6.994;2023-04-07T12:45:55;11.30;99.90
4324;DHT22;2175;51.018;6.994;2023-04-07T12:48:21;11.50;99.90
4324;DHT22;2175;51.018;6.994;2023-04-07T12:50:48;11.50;99.90
4324;DHT22;2175;51.018;6.994;2023-04-07T12:53:13;11.50;99.90
4324;DHT22;2175;51.018;6.994;2023-04-07T12:55:39;11.60;99.90
4324;DHT22;2175;51.018;6.994;2023-04-07T12:58:06;11.80;99.90
4324;DHT22;2175;51.018;6.994;2023-04-07T13:00:32;11.80;99.90
4324;DHT22;2175;51.018;6.994;2023-04-07T13:02:57;12.00;99.90
4324;DHT22;2175;51.018;6.994;2023-04-07T13:05:23;11.80;99.90
4324;DHT22;2175;51.018;6.994;2023-04-07T13:07:49;11.80;99.90
4324;DHT22;2175;51.018;6.994;2023-04-07T13:10:14;11.80;99.90
4324;DHT22;2175;51.018;6.994;2023-04-07T13:12:40;11.80;99.90
4324;DHT22;2175;51.018;6.994;2023-04-07T13:15:07;11.90;99.90
4324;DHT22;2175;51.018;6.994;2023-04-07T13:17:33;11.80;99.90
4324;DHT22;2175;51.018;6.994;2023-04-07T13:20:04;11.90;99.90
4324;DHT22;2175;51.018;6.994;2023-04-07T13:22:30;12.00;99.90
4324;DHT22;2175;51.018;6.994;2023-04-07T13:24:56;12.10;99.90
4324;DHT22;2175;51.018;6.994;2023-04-07T13:27:22;12.20;99.90
4324;DHT22;2175;51.018;6.994;2023-04-07T13:29:47;12.20;99.90
4324;DHT22;2175;51.018;6.994;2023-04-07T13:32:13;12.20;99.90
4324;DHT22;2175;51.018;6.994;2023-04-07T13:34:40;12.40;99.90
4324;DHT22;2175;51.018;6.994;2023-04-07T13:37:06;12.40;99.90
4324;DHT22;2175;51.018;6.994;2023-04-07T13:39:32;12.30;99.90
4324;DHT22;2175;51.018;6.994;2023-04-07T13:41:58;12.20;99.90
4324;DHT22;2175;51.018;6.994;2023-04-07T13:44:25;12.00;99.90
4324;DHT22;2175;51.018;6.994;2023-04-07T13:46:53;11.90;99.90
4324;DHT22;2175;51.018;6.994;2023-04-07T13:51:50;11.70;99.90
4324;DHT22;2175;51.018;6.994;2023-04-07T13:54:16;11.70;99.90
4324;DHT22;2175;51.018;6.994;2023-04-07T13:56:42;11.70;99.90
4324;DHT22;2175;51.018;6.994;2023-04-07T13:59:10;11.60;99.90
4324;DHT22;2175;51.018;6.994;2023-04-07T14:01:36;11.50;99.90
4324;DHT22;2175;51.018;6.994;2023-04-07T14:04:04;11.20;99.90
4324;DHT22;2175;51.018;6.994;2023-04-07T14:06:29;11.10;99.90
4324;DHT22;2175;51.018;6.994;2023-04-07T14:08:57;11.10;99.90
4324;DHT22;2175;51.018;6.994;2023-04-07T14:11:23;11.10;99.90
4324;DHT22;2175;51.018;6.994;2023-04-07T14:13:49;11.20;99.90
4324;DHT22;2175;51.018;6.994;2023-04-07T14:16:16;11.10;99.90
4324;DHT22;2175;51.018;6.994;2023-04-07T14:18:43;11.20;99.90
4324;DHT22;2175;51.018;6.994;2023-04-07T14:21:09;11.30;99.90
4324;DHT22;2175;51.018;6.994;2023-04-07T14:23:36;11.40;99.90
4324;DHT22;2175;51.018;6.994;2023-04-07T14:26:02;11.50;99.90
4324;DHT22;2175;51.018;6.994;2023-04-07T14:28:27;11.50;99.90
4324;DHT22;2175;51.018;6.994;2023-04-07T14:30:54;11.60;99.90
4324;DHT22;2175;51.018;6.994;2023-04-07T14:33:20;11.60;99.90
4324;DHT22;2175;51.018;6.994;2023-04-07T14:35:47;11.70;99.90
4324;DHT22;2175;51.018;6.994;2023-04-07T14:38:13;11.70;99.90
4324;DHT22;2175;51.018;6.994;2023-04-07T14:40:39;11.70;99.90
4324;DHT22;2175;51.018;6.994;2023-04-07T14:43:05;11.70;99.90
4324;DHT22;2175;51.018;6.994;2023-04-07T14:45:32;11.80;99.90
4324;DHT22;2175;51.018;6.994;2023-04-07T14:47:58;11.80;99.90
4324;DHT22;2175;51.018;6.994;2023-04-07T14:50:23;11.90;99.90
4324;DHT22;2175;51.018;6.994;2023-04-07T14:52:49;11.90;99.90
4324;DHT22;2175;51.018;6.994;2023-04-07T14:55:15;12.00;99.90
4324;DHT22;2175;51.018;6.994;2023-04-07T14:57:40;12.00;99.90
4324;DHT22;2175;51.018;6.994;2023-04-07T15:00:07;11.90;99.90
4324;DHT22;2175;51.018;6.994;2023-04-07T15:02:33;11.90;99.90
4324;DHT22;2175;51.018;6.994;2023-04-07T15:04:59;11.90;99.90
4324;DHT22;2175;51.018;6.994;2023-04-07T15:07:25;11.90;99.90
4324;DHT22;2175;51.018;6.994;2023-04-07T15:09:51;11.90;99.90
4324;DHT22;2175;51.018;6.994;2023-04-07T15:12:16;11.90;99.90
4324;DHT22;2175;51.018;6.994;2023-04-07T15:14:43;11.90;99.90
4324;DHT22;2175;51.018;6.994;2023-04-07T15:17:09;11.90;99.90
4324;DHT22;2175;51.018;6.994;2023-04-07T15:19:35;12.00;99.90
4324;DHT22;2175;51.018;6.994;2023-04-07T15:22:01;11.90;99.90
4324;DHT22;2175;51.018;6.994;2023-04-07T15:24:26;11.80;99.90
4324;DHT22;2175;51.018;6.994;2023-04-07T15:26:52;11.80;99.90
4324;DHT22;2175;51.018;6.994;2023-04-07T15:29:18;11.70;99.90
4324;DHT22;2175;51.018;6.994;2023-04-07T15:31:43;11.60;99.90
4324;DHT22;2175;51.018;6.994;2023-04-07T15:34:09;11.60;99.90
4324;DHT22;2175;51.018;6.994;2023-04-07T15:36:34;11.60;99.90
4324;DHT22;2175;51.018;6.994;2023-04-07T15:39:04;11.60;99.90
4324;DHT22;2175;51.018;6.994;2023-04-07T15:41:30;11.60;99.90
4324;DHT22;2175;51.018;6.994;2023-04-07T15:43:55;11.60;99.90
4324;DHT22;2175;51.018;6.994;2023-04-07T15:46:21;11.60;99.90
4324;DHT22;2175;51.018;6.994;2023-04-07T15:48:47;11.60;99.90
4324;DHT22;2175;51.018;6.994;2023-04-07T15:51:13;11.60;99.90
4324;DHT22;2175;51.018;6.994;2023-04-07T15:53:38;11.60;99.90
4324;DHT22;2175;51.018;6.994;2023-04-07T15:56:04;11.60;99.90
4324;DHT22;2175;51.018;6.994;2023-04-07T15:58:30;11.60;99.90
4324;DHT22;2175;51.018;6.994;2023-04-07T16:00:57;11.70;99.90
4324;DHT22;2175;51.018;6.994;2023-04-07T16:03:23;11.70;99.90
4324;DHT22;2175;51.018;6.994;2023-04-07T16:05:49;11.70;99.90
4324;DHT22;2175;51.018;6.994;2023-04-07T16:08:15;11.70;99.90
4324;DHT22;2175;51.018;6.994;2023-04-07T16:10:41;11.70;99.90
4324;DHT22;2175;51.018;6.994;2023-04-07T16:13:08;11.70;99.90
4324;DHT22;2175;51.018;6.994;2023-04-07T16:15:33;11.80;99.90
4324;DHT22;2175;51.018;6.994;2023-04-07T16:18:03;11.70;99.90
4324;DHT22;2175;51.018;6.994;2023-04-07T16:20:28;11.70;99.90
4324;DHT22;2175;51.018;6.994;2023-04-07T16:22:54;11.70;99.90
4324;DHT22;2175;51.018;6.994;2023-04-07T16:25:20;11.70;99.90
4324;DHT22;2175;51.018;6.994;2023-04-07T16:27:46;11.70;99.90
4324;DHT22;2175;51.018;6.994;2023-04-07T16:30:13;11.70;99.90
4324;DHT22;2175;51.018;6.994;2023-04-07T16:32:39;11.70;99.90
4324;DHT22;2175;51.018;6.994;2023-04-07T16:35:09;11.70;99.90
4324;DHT22;2175;51.018;6.994;2023-04-07T16:37:35;11.70;99.90
4324;DHT22;2175;51.018;6.994;2023-04-07T16:40:01;11.60;99.90
4324;DHT22;2175;51.018;6.994;2023-04-07T16:42:26;11.60;99.90
4324;DHT22;2175;51.018;6.994;2023-04-07T16:44:55;11.50;99.90
4324;DHT22;2175;51.018;6.994;2023-04-07T16:47:22;11.40;99.90
4324;DHT22;2175;51.018;6.994;2023-04-07T16:49:49;11.30;99.90
4324;DHT22;2175;51.018;6.994;2023-04-07T16:52:14;11.30;99.90